sensor_id;sensor_type;location;lat;lon;timestamp;pressure;altitude;pressure_sealevel;temperature;humidity
7930;BME280;4010;42.698;23.124;2024-01-25T00:01:41;118349.16;;;-140.64;73.30
7930;BME280;4010;42.698;23.124;2024-01-25T00:04:07;118349.16;;;-140.64;73.88
7930;BME280;4010;42.698;23.124;2024-01-25T00:06:35;118349.16;;;-140.64;73.51
7930;BME280;4010;42.698;23.124;2024-01-25T00:09:03;118349.16;;;-140.64;72.91
7930;BME280;4010;42.698;23.124;2024-01-25T00:11:30;118349.16;;;-140.64;73.17
7930;BME280;4010;42.698;23.124;2024-01-25T00:13:57;118349.16;;;-140.64;74.28
7930;BME280;4010;42.698;23.124;2024-01-25T00:16:24;118349.16;;;-140.64;72.37
7930;BME280;4010;42.698;23.124;2024-01-25T00:18:51;118349.16;;;-140.64;72.16
7930;BME280;4010;42.698;23.124;2024-01-25T00:21:18;118349.16;;;-140.64;72.31
7930;BME280;4010;42.698;23.124;2024-01-25T00:23:44;118349.16;;;-140.64;70.47
7930;BME280;4010;42.698;23.124;2024-01-25T00:26:13;118349.16;;;-140.64;69.09
7930;BME280;4010;42.698;23.124;2024-01-25T00:28:39;118349.16;;;-140.64;69.94
7930;BME280;4010;42.698;23.124;2024-01-25T00:31:06;118349.16;;;-140.64;70.42
7930;BME280;4010;42.698;23.124;2024-01-25T00:33:33;118349.16;;;-140.64;70.40
7930;BME280;4010;42.698;23.124;2024-01-25T00:36:00;118349.16;;;-140.64;70.93
7930;BME280;4010;42.698;23.124;2024-01-25T00:38:27;118349.16;;;-140.64;70.49
7930;BME280;4010;42.698;23.124;2024-01-25T00:40:55;118349.16;;;-140.64;69.51
7930;BME280;4010;42.698;23.124;2024-01-25T00:43:24;118349.16;;;-140.64;69.79
7930;BME280;4010;42.698;23.124;2024-01-25T00:45:51;118349.16;;;-140.64;70.09
7930;BME280;4010;42.698;23.124;2024-01-25T00:48:18;118349.16;;;-140.64;70.63
7930;BME280;4010;42.698;23.124;2024-01-25T00:50:46;118349.16;;;-140.64;72.03
7930;BME280;4010;42.698;23.124;2024-01-25T00:53:13;118349.16;;;-140.64;72.61
7930;BME280;4010;42.698;23.124;2024-01-25T00:55:40;118349.16;;;-140.64;74.79
7930;BME280;4010;42.698;23.124;2024-01-25T00:58:08;118349.16;;;-140.64;75.04
7930;BME280;4010;42.698;23.124;2024-01-25T01:00:37;118349.16;;;-140.64;74.75
7930;BME280;4010;42.698;23.124;2024-01-25T01:03:05;118349.16;;;-140.64;74.00
7930;BME280;4010;42.698;23.124;2024-01-25T01:05:32;118349.16;;;-140.64;73.55
7930;BME280;4010;42.698;23.124;2024-01-25T01:07:59;118349.16;;;-140.64;74.58
7930;BME280;4010;42.698;23.124;2024-01-25T01:10:26;118349.16;;;-140.64;73.19
7930;BME280;4010;42.698;23.124;2024-01-25T01:12:53;118349.16;;;-140.64;73.21
7930;BME280;4010;42.698;23.124;2024-01-25T01:15:20;118349.16;;;-140.64;74.02
7930;BME280;4010;42.698;23.124;2024-01-25T01:17:48;118349.16;;;-140.64;74.24
7930;BME280;4010;42.698;23.124;2024-01-25T01:20:15;118349.16;;;-140.64;71.88
7930;BME280;4010;42.698;23.124;2024-01-25T01:22:41;118349.16;;;-140.64;70.24
7930;BME280;4010;42.698;23.124;2024-01-25T01:25:08;118349.16;;;-140.64;70.58
7930;BME280;4010;42.698;23.124;2024-01-25T01:27:35;118349.16;;;-140.64;69.66
7930;BME280;4010;42.698;23.124;2024-01-25T01:30:03;118349.16;;;-140.64;69.81
7930;BME280;4010;42.698;23.124;2024-01-25T01:32:30;118349.16;;;-140.64;68.85
7930;BME280;4010;42.698;23.124;2024-01-25T01:34:58;118349.16;;;-140.64;68.66
7930;BME280;4010;42.698;23.124;2024-01-25T01:37:25;118349.16;;;-140.64;66.54
7930;BME280;4010;42.698;23.124;2024-01-25T01:39:52;118349.16;;;-140.64;67.03
7930;BME280;4010;42.698;23.124;2024-01-25T01:42:21;118349.16;;;-140.64;67.33
7930;BME280;4010;42.698;23.124;2024-01-25T01:44:48;118349.16;;;-140.64;68.77
7930;BME280;4010;42.698;23.124;2024-01-25T01:47:15;118349.16;;;-140.64;66.89
7930;BME280;4010;42.698;23.124;2024-01-25T01:49:42;118349.16;;;-140.64;67.74
7930;BME280;4010;42.698;23.124;2024-01-25T01:52:10;118349.16;;;-140.64;67.04
7930;BME280;4010;42.698;23.124;2024-01-25T01:54:38;118349.16;;;-140.64;66.82
7930;BME280;4010;42.698;23.124;2024-01-25T01:57:05;118349.16;;;-140.64;68.04
7930;BME280;4010;42.698;23.124;2024-01-25T01:59:33;118349.16;;;-140.64;68.51
7930;BME280;4010;42.698;23.124;2024-01-25T02:02:00;118349.16;;;-140.64;68.76
7930;BME280;4010;42.698;23.124;2024-01-25T02:04:27;118349.16;;;-140.64;69.00
7930;BME280;4010;42.698;23.124;2024-01-25T02:06:53;118349.16;;;-140.64;70.03
7930;BME280;4010;42.698;23.124;2024-01-25T02:09:23;118349.16;;;-140.64;69.60
7930;BME280;4010;42.698;23.124;2024-01-25T02:11:59;118349.16;;;-140.64;68.72
7930;BME280;4010;42.698;23.124;2024-01-25T02:14:26;118349.16;;;-140.64;71.77
7930;BME280;4010;42.698;23.124;2024-01-25T02:16:53;118349.16;;;-140.64;73.67
7930;BME280;4010;42.698;23.124;2024-01-25T02:19:20;118349.16;;;-140.64;76.07
7930;BME280;4010;42.698;23.124;2024-01-25T02:21:46;118349.16;;;-140.64;76.16
7930;BME280;4010;42.698;23.124;2024-01-25T02:24:15;118349.16;;;-140.64;77.69
7930;BME280;4010;42.698;23.124;2024-01-25T02:26:42;118349.16;;;-140.64;78.93
7930;BME280;4010;42.698;23.124;2024-01-25T02:29:09;118349.16;;;-140.64;79.02
7930;BME280;4010;42.698;23.124;2024-01-25T02:31:36;118349.16;;;-140.64;79.36
7930;BME280;4010;42.698;23.124;2024-01-25T02:34:02;118349.16;;;-140.64;79.97
7930;BME280;4010;42.698;23.124;2024-01-25T02:36:29;118349.16;;;-140.64;80.31
7930;BME280;4010;42.698;23.124;2024-01-25T02:38:56;118349.16;;;-140.64;80.39
7930;BME280;4010;42.698;23.124;2024-01-25T02:41:24;118349.16;;;-140.64;80.41
7930;BME280;4010;42.698;23.124;2024-01-25T02:43:51;118349.16;;;-140.64;79.00
7930;BME280;4010;42.698;23.124;2024-01-25T02:46:17;118349.16;;;-140.64;78.25
7930;BME280;4010;42.698;23.124;2024-01-25T02:48:44;118349.16;;;-140.64;78.11
7930;BME280;4010;42.698;23.124;2024-01-25T02:51:11;118349.16;;;-140.64;78.13
7930;BME280;4010;42.698;23.124;2024-01-25T02:53:38;118349.16;;;-140.64;77.71
7930;BME280;4010;42.698;23.124;2024-01-25T02:56:06;118349.16;;;-140.64;76.23
7930;BME280;4010;42.698;23.124;2024-01-25T02:58:34;118349.16;;;-140.64;75.03
7930;BME280;4010;42.698;23.124;2024-01-25T03:01:00;118349.16;;;-140.64;74.09
7930;BME280;4010;42.698;23.124;2024-01-25T03:03:27;118349.16;;;-140.64;73.21
7930;BME280;4010;42.698;23.124;2024-01-25T03:05:54;118349.16;;;-140.64;73.01
7930;BME280;4010;42.698;23.124;2024-01-25T03:08:21;118349.16;;;-140.64;72.50
7930;BME280;4010;42.698;23.124;2024-01-25T03:10:48;118349.16;;;-140.64;72.04
7930;BME280;4010;42.698;23.124;2024-01-25T03:13:15;118349.16;;;-140.64;72.51
7930;BME280;4010;42.698;23.124;2024-01-25T03:15:44;118349.16;;;-140.64;71.96
7930;BME280;4010;42.698;23.124;2024-01-25T03:18:11;118349.16;;;-140.64;73.20
7930;BME280;4010;42.698;23.124;2024-01-25T03:20:37;118349.16;;;-140.64;74.53
7930;BME280;4010;42.698;23.124;2024-01-25T03:23:04;118349.16;;;-140.64;75.16
7930;BME280;4010;42.698;23.124;2024-01-25T03:25:31;118349.16;;;-140.64;74.36
7930;BME280;4010;42.698;23.124;2024-01-25T03:27:57;118349.16;;;-140.64;73.90
7930;BME280;4010;42.698;23.124;2024-01-25T03:30:24;118349.16;;;-140.64;74.39
7930;BME280;4010;42.698;23.124;2024-01-25T03:32:52;118349.16;;;-140.64;74.55
7930;BME280;4010;42.698;23.124;2024-01-25T03:35:19;118349.16;;;-140.64;74.57
7930;BME280;4010;42.698;23.124;2024-01-25T03:37:46;118349.16;;;-140.64;74.15
7930;BME280;4010;42.698;23.124;2024-01-25T03:40:13;118349.16;;;-140.64;74.05
7930;BME280;4010;42.698;23.124;2024-01-25T03:42:39;118349.16;;;-140.64;73.74
7930;BME280;4010;42.698;23.124;2024-01-25T03:45:07;118349.16;;;-140.64;73.17
7930;BME280;4010;42.698;23.124;2024-01-25T03:47:34;118349.16;;;-140.64;73.81
7930;BME280;4010;42.698;23.124;2024-01-25T03:50:02;118349.16;;;-140.64;73.10
7930;BME280;4010;42.698;23.124;2024-01-25T03:52:29;118349.16;;;-140.64;73.11
7930;BME280;4010;42.698;23.124;2024-01-25T03:54:55;118349.16;;;-140.64;73.62
7930;BME280;4010;42.698;23.124;2024-01-25T03:57:22;118349.16;;;-140.64;72.82
7930;BME280;4010;42.698;23.124;2024-01-25T03:59:49;118349.16;;;-140.64;72.85
7930;BME280;4010;42.698;23.124;2024-01-25T04:02:15;118349.16;;;-140.64;72.82
7930;BME280;4010;42.698;23.124;2024-01-25T04:04:42;118349.16;;;-140.64;72.57
7930;BME280;4010;42.698;23.124;2024-01-25T04:07:10;118349.16;;;-140.64;73.23
7930;BME280;4010;42.698;23.124;2024-01-25T04:09:37;118349.16;;;-140.64;73.23
7930;BME280;4010;42.698;23.124;2024-01-25T04:12:06;118349.16;;;-140.64;73.17
7930;BME280;4010;42.698;23.124;2024-01-25T04:14:33;118349.16;;;-140.64;73.14
7930;BME280;4010;42.698;23.124;2024-01-25T04:16:59;118349.16;;;-140.64;72.44
7930;BME280;4010;42.698;23.124;2024-01-25T04:19:26;118349.16;;;-140.64;72.20
7930;BME280;4010;42.698;23.124;2024-01-25T04:21:53;118349.16;;;-140.64;71.99
7930;BME280;4010;42.698;23.124;2024-01-25T04:24:21;118349.16;;;-140.64;71.40
7930;BME280;4010;42.698;23.124;2024-01-25T04:26:48;118349.16;;;-140.64;71.35
7930;BME280;4010;42.698;23.124;2024-01-25T04:29:16;118349.16;;;-140.64;71.93
7930;BME280;4010;42.698;23.124;2024-01-25T04:31:43;118349.16;;;-140.64;71.00
7930;BME280;4010;42.698;23.124;2024-01-25T04:34:12;118349.16;;;-140.64;69.64
7930;BME280;4010;42.698;23.124;2024-01-25T04:36:39;118349.16;;;-140.64;69.94
7930;BME280;4010;42.698;23.124;2024-01-25T04:39:06;118349.16;;;-140.64;70.54
7930;BME280;4010;42.698;23.124;2024-01-25T04:41:34;118349.16;;;-140.64;71.08
7930;BME280;4010;42.698;23.124;2024-01-25T04:44:00;118349.16;;;-140.64;71.27
7930;BME280;4010;42.698;23.124;2024-01-25T04:46:27;118349.16;;;-140.64;71.88
7930;BME280;4010;42.698;23.124;2024-01-25T04:48:54;118349.16;;;-140.64;71.27
7930;BME280;4010;42.698;23.124;2024-01-25T04:51:22;118349.16;;;-140.64;70.24
7930;BME280;4010;42.698;23.124;2024-01-25T04:53:49;118349.16;;;-140.64;69.76
7930;BME280;4010;42.698;23.124;2024-01-25T04:56:16;118349.16;;;-140.64;69.60
7930;BME280;4010;42.698;23.124;2024-01-25T04:58:44;118349.16;;;-140.64;69.69
7930;BME280;4010;42.698;23.124;2024-01-25T05:01:11;118349.16;;;-140.64;69.09
7930;BME280;4010;42.698;23.124;2024-01-25T05:03:37;118349.16;;;-140.64;69.87
7930;BME280;4010;42.698;23.124;2024-01-25T05:06:04;118349.16;;;-140.64;70.36
7930;BME280;4010;42.698;23.124;2024-01-25T05:08:31;118349.16;;;-140.64;70.44
7930;BME280;4010;42.698;23.124;2024-01-25T05:10:58;118349.16;;;-140.64;71.28
7930;BME280;4010;42.698;23.124;2024-01-25T05:13:25;118349.16;;;-140.64;72.28
7930;BME280;4010;42.698;23.124;2024-01-25T05:15:53;118349.16;;;-140.64;73.45
7930;BME280;4010;42.698;23.124;2024-01-25T05:18:19;118349.16;;;-140.64;73.70
7930;BME280;4010;42.698;23.124;2024-01-25T05:20:46;118349.16;;;-140.64;73.85
7930;BME280;4010;42.698;23.124;2024-01-25T05:23:13;118349.16;;;-140.64;73.78
7930;BME280;4010;42.698;23.124;2024-01-25T05:25:40;118349.16;;;-140.64;73.15
7930;BME280;4010;42.698;23.124;2024-01-25T05:28:07;118349.16;;;-140.64;73.31
7930;BME280;4010;42.698;23.124;2024-01-25T05:30:34;118349.16;;;-140.64;73.56
7930;BME280;4010;42.698;23.124;2024-01-25T05:33:02;118349.16;;;-140.64;73.49
7930;BME280;4010;42.698;23.124;2024-01-25T05:35:29;118349.16;;;-140.64;73.35
7930;BME280;4010;42.698;23.124;2024-01-25T05:37:55;118349.16;;;-140.64;73.12
7930;BME280;4010;42.698;23.124;2024-01-25T05:40:22;118349.16;;;-140.64;73.26
7930;BME280;4010;42.698;23.124;2024-01-25T05:42:49;118349.16;;;-140.64;73.60
7930;BME280;4010;42.698;23.124;2024-01-25T05:45:16;118349.16;;;-140.64;73.60
7930;BME280;4010;42.698;23.124;2024-01-25T05:47:45;118349.16;;;-140.64;74.07
7930;BME280;4010;42.698;23.124;2024-01-25T05:50:13;118349.16;;;-140.64;74.02
7930;BME280;4010;42.698;23.124;2024-01-25T05:52:40;118349.16;;;-140.64;73.72
7930;BME280;4010;42.698;23.124;2024-01-25T05:55:07;118349.16;;;-140.64;74.12
7930;BME280;4010;42.698;23.124;2024-01-25T05:57:35;118349.16;;;-140.64;74.08
7930;BME280;4010;42.698;23.124;2024-01-25T06:00:02;118349.16;;;-140.64;74.75
7930;BME280;4010;42.698;23.124;2024-01-25T06:02:30;118349.16;;;-140.64;74.45
7930;BME280;4010;42.698;23.124;2024-01-25T06:04:57;118349.16;;;-140.64;74.82
7930;BME280;4010;42.698;23.124;2024-01-25T06:07:26;118349.16;;;-140.64;74.76
7930;BME280;4010;42.698;23.124;2024-01-25T06:09:53;118349.16;;;-140.64;74.47
7930;BME280;4010;42.698;23.124;2024-01-25T06:12:20;118349.16;;;-140.64;74.59
7930;BME280;4010;42.698;23.124;2024-01-25T06:14:46;118349.16;;;-140.64;74.67
7930;BME280;4010;42.698;23.124;2024-01-25T06:17:13;118349.16;;;-140.64;74.22
7930;BME280;4010;42.698;23.124;2024-01-25T06:19:40;118349.16;;;-140.64;74.12
7930;BME280;4010;42.698;23.124;2024-01-25T06:22:07;118349.16;;;-140.64;74.02
7930;BME280;4010;42.698;23.124;2024-01-25T06:24:35;118349.16;;;-140.64;73.50
7930;BME280;4010;42.698;23.124;2024-01-25T06:27:02;118349.16;;;-140.64;73.51
7930;BME280;4010;42.698;23.124;2024-01-25T06:29:29;118349.16;;;-140.64;73.60
7930;BME280;4010;42.698;23.124;2024-01-25T06:31:55;118349.16;;;-140.64;73.52
7930;BME280;4010;42.698;23.124;2024-01-25T06:34:22;118349.16;;;-140.64;73.26
7930;BME280;4010;42.698;23.124;2024-01-25T06:36:49;118349.16;;;-140.64;73.56
7930;BME280;4010;42.698;23.124;2024-01-25T06:39:16;118349.16;;;-140.64;73.35
7930;BME280;4010;42.698;23.124;2024-01-25T06:41:44;118349.16;;;-140.64;72.45
7930;BME280;4010;42.698;23.124;2024-01-25T06:44:10;118349.16;;;-140.64;71.50
7930;BME280;4010;42.698;23.124;2024-01-25T06:46:37;118349.16;;;-140.64;71.88
7930;BME280;4010;42.698;23.124;2024-01-25T06:49:04;118349.16;;;-140.64;71.78
7930;BME280;4010;42.698;23.124;2024-01-25T06:51:30;118349.16;;;-140.64;71.18
7930;BME280;4010;42.698;23.124;2024-01-25T06:53:57;118349.16;;;-140.64;71.45
7930;BME280;4010;42.698;23.124;2024-01-25T06:56:24;118349.16;;;-140.64;71.76
7930;BME280;4010;42.698;23.124;2024-01-25T06:58:53;118349.16;;;-140.64;70.35
7930;BME280;4010;42.698;23.124;2024-01-25T07:01:23;118349.16;;;-140.64;70.65
7930;BME280;4010;42.698;23.124;2024-01-25T07:03:50;118349.16;;;-140.64;70.63
7930;BME280;4010;42.698;23.124;2024-01-25T07:06:17;118349.16;;;-140.64;70.95
7930;BME280;4010;42.698;23.124;2024-01-25T07:08:44;118349.16;;;-140.64;71.07
7930;BME280;4010;42.698;23.124;2024-01-25T07:11:10;118349.16;;;-140.64;70.46
7930;BME280;4010;42.698;23.124;2024-01-25T07:13:37;118349.16;;;-140.64;69.54
7930;BME280;4010;42.698;23.124;2024-01-25T07:16:06;118349.16;;;-140.64;69.36
7930;BME280;4010;42.698;23.124;2024-01-25T07:18:33;118349.16;;;-140.64;70.36
7930;BME280;4010;42.698;23.124;2024-01-25T07:20:59;118349.16;;;-140.64;69.96
7930;BME280;4010;42.698;23.124;2024-01-25T07:23:26;118349.16;;;-140.64;68.84
7930;BME280;4010;42.698;23.124;2024-01-25T07:25:53;118349.16;;;-140.64;68.71
7930;BME280;4010;42.698;23.124;2024-01-25T07:28:20;118349.16;;;-140.64;68.41
7930;BME280;4010;42.698;23.124;2024-01-25T07:30:47;118349.16;;;-140.64;68.89
7930;BME280;4010;42.698;23.124;2024-01-25T07:33:16;118349.16;;;-140.64;68.59
7930;BME280;4010;42.698;23.124;2024-01-25T07:35:43;118349.16;;;-140.64;68.70
7930;BME280;4010;42.698;23.124;2024-01-25T07:38:12;118349.16;;;-140.64;68.27
7930;BME280;4010;42.698;23.124;2024-01-25T07:40:39;118349.16;;;-140.64;68.29
7930;BME280;4010;42.698;23.124;2024-01-25T07:43:05;118349.16;;;-140.64;67.95
7930;BME280;4010;42.698;23.124;2024-01-25T07:45:32;118349.16;;;-140.64;66.92
7930;BME280;4010;42.698;23.124;2024-01-25T07:47:59;118349.16;;;-140.64;64.88
7930;BME280;4010;42.698;23.124;2024-01-25T07:50:28;118349.16;;;-140.64;65.91
7930;BME280;4010;42.698;23.124;2024-01-25T07:52:54;118349.16;;;-140.64;66.17
7930;BME280;4010;42.698;23.124;2024-01-25T07:55:21;118349.16;;;-140.64;65.10
7930;BME280;4010;42.698;23.124;2024-01-25T07:57:48;118349.16;;;-140.64;63.66
7930;BME280;4010;42.698;23.124;2024-01-25T08:00:15;118349.16;;;-140.64;60.56
7930;BME280;4010;42.698;23.124;2024-01-25T08:02:42;118349.16;;;-140.64;60.90
7930;BME280;4010;42.698;23.124;2024-01-25T08:05:10;118349.16;;;-140.64;61.66
7930;BME280;4010;42.698;23.124;2024-01-25T08:07:38;118349.16;;;-140.64;59.91
7930;BME280;4010;42.698;23.124;2024-01-25T08:10:06;118349.16;;;-140.64;61.06
7930;BME280;4010;42.698;23.124;2024-01-25T08:12:33;118349.16;;;-140.64;61.41
7930;BME280;4010;42.698;23.124;2024-01-25T08:15:00;118349.16;;;-140.64;60.71
7930;BME280;4010;42.698;23.124;2024-01-25T08:17:27;118349.16;;;-140.64;60.57
7930;BME280;4010;42.698;23.124;2024-01-25T08:19:54;118349.16;;;-140.64;59.87
7930;BME280;4010;42.698;23.124;2024-01-25T08:22:20;118349.16;;;-140.64;60.20
7930;BME280;4010;42.698;23.124;2024-01-25T08:24:49;118349.16;;;-140.64;59.10
7930;BME280;4010;42.698;23.124;2024-01-25T08:27:16;118349.16;;;-140.64;57.81
7930;BME280;4010;42.698;23.124;2024-01-25T08:29:43;118349.16;;;-140.64;58.64
7930;BME280;4010;42.698;23.124;2024-01-25T08:32:10;118349.16;;;-140.64;56.49
7930;BME280;4010;42.698;23.124;2024-01-25T08:34:36;118349.16;;;-140.64;57.70
7930;BME280;4010;42.698;23.124;2024-01-25T08:37:03;118349.16;;;-140.64;58.49
7930;BME280;4010;42.698;23.124;2024-01-25T08:39:30;118349.16;;;-140.64;58.05
7930;BME280;4010;42.698;23.124;2024-01-25T08:41:58;118349.16;;;-140.64;57.07
7930;BME280;4010;42.698;23.124;2024-01-25T08:44:27;118349.16;;;-140.64;57.61
7930;BME280;4010;42.698;23.124;2024-01-25T08:46:53;118349.16;;;-140.64;56.98
7930;BME280;4010;42.698;23.124;2024-01-25T08:49:20;118349.16;;;-140.64;57.20
7930;BME280;4010;42.698;23.124;2024-01-25T08:51:47;118349.16;;;-140.64;57.90
7930;BME280;4010;42.698;23.124;2024-01-25T08:54:14;118349.16;;;-140.64;57.70
7930;BME280;4010;42.698;23.124;2024-01-25T08:56:40;118349.16;;;-140.64;54.78
7930;BME280;4010;42.698;23.124;2024-01-25T08:59:08;118349.16;;;-140.64;55.62
7930;BME280;4010;42.698;23.124;2024-01-25T09:01:35;118349.16;;;-140.64;54.44
7930;BME280;4010;42.698;23.124;2024-01-25T09:04:02;118349.16;;;-140.64;53.80
7930;BME280;4010;42.698;23.124;2024-01-25T09:06:29;118349.16;;;-140.64;54.11
7930;BME280;4010;42.698;23.124;2024-01-25T09:08:56;118349.16;;;-140.64;54.46
7930;BME280;4010;42.698;23.124;2024-01-25T09:11:22;118349.16;;;-140.64;54.97
7930;BME280;4010;42.698;23.124;2024-01-25T09:13:49;118349.16;;;-140.64;53.83
7930;BME280;4010;42.698;23.124;2024-01-25T09:16:18;118349.16;;;-140.64;53.29
7930;BME280;4010;42.698;23.124;2024-01-25T09:18:45;118349.16;;;-140.64;52.29
7930;BME280;4010;42.698;23.124;2024-01-25T09:21:12;118349.16;;;-140.64;53.29
7930;BME280;4010;42.698;23.124;2024-01-25T09:23:39;118349.16;;;-140.64;53.90
7930;BME280;4010;42.698;23.124;2024-01-25T09:26:06;118349.16;;;-140.64;53.67
7930;BME280;4010;42.698;23.124;2024-01-25T09:28:32;118349.16;;;-140.64;53.02
7930;BME280;4010;42.698;23.124;2024-01-25T09:30:59;118349.16;;;-140.64;52.10
7930;BME280;4010;42.698;23.124;2024-01-25T09:33:27;118349.16;;;-140.64;50.71
7930;BME280;4010;42.698;23.124;2024-01-25T09:35:55;118349.16;;;-140.64;50.23
7930;BME280;4010;42.698;23.124;2024-01-25T09:38:22;118349.16;;;-140.64;49.72
7930;BME280;4010;42.698;23.124;2024-01-25T09:40:48;118349.16;;;-140.64;49.75
7930;BME280;4010;42.698;23.124;2024-01-25T09:43:17;118349.16;;;-140.64;49.98
7930;BME280;4010;42.698;23.124;2024-01-25T09:45:46;118349.16;;;-140.64;51.10
7930;BME280;4010;42.698;23.124;2024-01-25T09:48:16;118349.16;;;-140.64;51.06
7930;BME280;4010;42.698;23.124;2024-01-25T09:50:47;118349.16;;;-140.64;49.86
7930;BME280;4010;42.698;23.124;2024-01-25T09:53:17;118349.16;;;-140.64;49.95
7930;BME280;4010;42.698;23.124;2024-01-25T09:55:52;118349.16;;;-140.64;49.64
7930;BME280;4010;42.698;23.124;2024-01-25T09:58:25;118349.16;;;-140.64;50.44
7930;BME280;4010;42.698;23.124;2024-01-25T10:00:57;118349.16;;;-140.64;49.99
7930;BME280;4010;42.698;23.124;2024-01-25T10:03:23;118349.16;;;-140.64;48.94
7930;BME280;4010;42.698;23.124;2024-01-25T10:05:51;118349.16;;;-140.64;50.18
7930;BME280;4010;42.698;23.124;2024-01-25T10:08:18;118349.16;;;-140.64;49.67
7930;BME280;4010;42.698;23.124;2024-01-25T10:10:48;118349.16;;;-140.64;49.30
7930;BME280;4010;42.698;23.124;2024-01-25T10:13:18;118349.16;;;-140.64;49.49
7930;BME280;4010;42.698;23.124;2024-01-25T10:15:45;118349.16;;;-140.64;48.83
7930;BME280;4010;42.698;23.124;2024-01-25T10:18:12;118349.16;;;-140.64;48.32
7930;BME280;4010;42.698;23.124;2024-01-25T10:20:39;118349.16;;;-140.64;48.32
7930;BME280;4010;42.698;23.124;2024-01-25T10:23:08;118349.16;;;-140.64;48.13
7930;BME280;4010;42.698;23.124;2024-01-25T10:25:35;118349.16;;;-140.64;48.51
7930;BME280;4010;42.698;23.124;2024-01-25T10:28:03;118349.16;;;-140.64;47.88
7930;BME280;4010;42.698;23.124;2024-01-25T10:30:31;118349.16;;;-140.64;47.90
7930;BME280;4010;42.698;23.124;2024-01-25T10:33:00;118349.16;;;-140.64;48.90
7930;BME280;4010;42.698;23.124;2024-01-25T10:35:29;118349.16;;;-140.64;49.28
7930;BME280;4010;42.698;23.124;2024-01-25T10:37:56;118349.16;;;-140.64;48.45
7930;BME280;4010;42.698;23.124;2024-01-25T10:40:25;118349.16;;;-140.64;46.77
7930;BME280;4010;42.698;23.124;2024-01-25T10:42:52;118349.16;;;-140.64;47.16
7930;BME280;4010;42.698;23.124;2024-01-25T10:45:19;118349.16;;;-140.64;47.39
7930;BME280;4010;42.698;23.124;2024-01-25T10:47:48;118349.16;;;-140.64;47.60
7930;BME280;4010;42.698;23.124;2024-01-25T10:50:15;118349.16;;;-140.64;49.51
7930;BME280;4010;42.698;23.124;2024-01-25T10:52:43;118349.16;;;-140.64;50.22
7930;BME280;4010;42.698;23.124;2024-01-25T10:55:11;118349.16;;;-140.64;50.20
7930;BME280;4010;42.698;23.124;2024-01-25T10:57:42;118349.16;;;-140.64;50.36
7930;BME280;4010;42.698;23.124;2024-01-25T11:00:11;118349.16;;;-140.64;48.99
7930;BME280;4010;42.698;23.124;2024-01-25T11:02:39;118349.16;;;-140.64;48.51
7930;BME280;4010;42.698;23.124;2024-01-25T11:05:08;118349.16;;;-140.64;48.43
7930;BME280;4010;42.698;23.124;2024-01-25T11:07:41;118349.16;;;-140.64;48.85
7930;BME280;4010;42.698;23.124;2024-01-25T11:10:13;118349.16;;;-140.64;50.17
7930;BME280;4010;42.698;23.124;2024-01-25T11:12:55;118349.16;;;-140.64;49.83
7930;BME280;4010;42.698;23.124;2024-01-25T11:15:23;118349.16;;;-140.64;49.26
7930;BME280;4010;42.698;23.124;2024-01-25T11:17:51;118349.16;;;-140.64;48.65
7930;BME280;4010;42.698;23.124;2024-01-25T11:20:20;118349.16;;;-140.64;48.94
7930;BME280;4010;42.698;23.124;2024-01-25T11:22:47;118349.16;;;-140.64;49.17
7930;BME280;4010;42.698;23.124;2024-01-25T11:25:19;118349.16;;;-140.64;49.10
7930;BME280;4010;42.698;23.124;2024-01-25T11:27:48;118349.16;;;-140.64;49.49
7930;BME280;4010;42.698;23.124;2024-01-25T11:30:17;118349.16;;;-140.64;51.96
7930;BME280;4010;42.698;23.124;2024-01-25T11:32:46;118349.16;;;-140.64;51.87
7930;BME280;4010;42.698;23.124;2024-01-25T11:35:13;118349.16;;;-140.64;51.98
7930;BME280;4010;42.698;23.124;2024-01-25T11:37:42;118349.16;;;-140.64;52.67
7930;BME280;4010;42.698;23.124;2024-01-25T11:40:10;118349.16;;;-140.64;52.39
7930;BME280;4010;42.698;23.124;2024-01-25T11:42:37;118349.16;;;-140.64;52.80
7930;BME280;4010;42.698;23.124;2024-01-25T11:45:05;118349.16;;;-140.64;52.54
7930;BME280;4010;42.698;23.124;2024-01-25T11:47:35;118349.16;;;-140.64;53.47
7930;BME280;4010;42.698;23.124;2024-01-25T11:50:02;118349.16;;;-140.64;51.98
7930;BME280;4010;42.698;23.124;2024-01-25T11:52:29;118349.16;;;-140.64;52.41
7930;BME280;4010;42.698;23.124;2024-01-25T11:54:58;118349.16;;;-140.64;51.83
7930;BME280;4010;42.698;23.124;2024-01-25T11:57:25;118349.16;;;-140.64;51.87
7930;BME280;4010;42.698;23.124;2024-01-25T11:59:52;118349.16;;;-140.64;51.64
7930;BME280;4010;42.698;23.124;2024-01-25T12:02:19;118349.16;;;-140.64;52.84
7930;BME280;4010;42.698;23.124;2024-01-25T12:04:47;118349.16;;;-140.64;52.03
7930;BME280;4010;42.698;23.124;2024-01-25T12:07:19;118349.16;;;-140.64;52.66
7930;BME280;4010;42.698;23.124;2024-01-25T12:09:57;118349.16;;;-140.64;51.57
7930;BME280;4010;42.698;23.124;2024-01-25T12:12:24;118349.16;;;-140.64;51.06
7930;BME280;4010;42.698;23.124;2024-01-25T12:14:50;118349.16;;;-140.64;52.16
7930;BME280;4010;42.698;23.124;2024-01-25T12:17:18;118349.16;;;-140.64;52.91
7930;BME280;4010;42.698;23.124;2024-01-25T12:19:45;118349.16;;;-140.64;54.19
7930;BME280;4010;42.698;23.124;2024-01-25T12:22:19;118349.16;;;-140.64;53.07
7930;BME280;4010;42.698;23.124;2024-01-25T12:24:46;118349.16;;;-140.64;53.44
7930;BME280;4010;42.698;23.124;2024-01-25T12:27:15;118349.16;;;-140.64;54.41
7930;BME280;4010;42.698;23.124;2024-01-25T12:29:42;118349.16;;;-140.64;53.24
7930;BME280;4010;42.698;23.124;2024-01-25T12:32:09;118349.16;;;-140.64;53.64
7930;BME280;4010;42.698;23.124;2024-01-25T12:34:36;118349.16;;;-140.64;53.55
7930;BME280;4010;42.698;23.124;2024-01-25T12:37:04;118349.16;;;-140.64;50.63
7930;BME280;4010;42.698;23.124;2024-01-25T12:39:32;118349.16;;;-140.64;51.50
7930;BME280;4010;42.698;23.124;2024-01-25T12:41:59;118349.16;;;-140.64;49.19